National Weather Service United States Department of Commerce
Click Here for Latest Airport Weather Warnings
 
Latest Huntsville TAF


000
FTUS44 KHUN 261005 AAA
TAFHSV
TAF AMD
KHSV 261005Z 2610/2706 VRB03KT 5SM BR SKC
TEMPO 2610/2612 2SM BR
FM261500 33008KT P6SM SKC
FM261800 32010G20KT P6SM SKC=

Latest Muscle Shoals TAF


000
FTUS44 KHUN 260520
TAFMSL
TAF
KMSL 260520Z 2606/2706 34003KT P6SM SKC
FM261500 33007KT P6SM SKC
FM261800 32010G19KT P6SM SKC=


Back to Main Huntsville Weather Forecast Office Page